createdAt,value
2014-10-07T00:00:23.096Z,75.31
2014-10-07T00:01:28.083Z,75.35
2014-10-07T00:02:32.803Z,74.46
2014-10-07T00:03:37.493Z,74.94
2014-10-07T00:04:42.182Z,75.73
2014-10-07T00:05:47.184Z,76.21
2014-10-07T00:06:51.874Z,75.97
2014-10-07T00:07:56.579Z,76.04
2014-10-07T00:09:01.565Z,75.03
2014-10-07T00:10:06.255Z,74.76
2014-10-07T00:11:10.961Z,75.73
2014-10-07T00:12:15.649Z,76.43
2014-10-07T00:13:20.339Z,76.11
2014-10-07T00:14:25.326Z,76.01
2014-10-07T00:15:30.030Z,75.93
2014-10-07T00:16:34.721Z,76.05
2014-10-07T00:17:39.410Z,76.39
2014-10-07T00:18:44.116Z,76.14
2014-10-07T00:19:48.805Z,76.3
2014-10-07T00:20:53.496Z,76.55
2014-10-07T00:21:58.497Z,76.29
2014-10-07T00:23:03.483Z,76.28
2014-10-07T00:24:08.766Z,76.3
2014-10-07T00:25:13.456Z,76.33
2014-10-07T00:26:18.740Z,76.08
2014-10-07T00:27:23.428Z,76.18
2014-10-07T00:28:28.119Z,75.98
2014-10-07T00:29:32.824Z,75.81
2014-10-07T00:30:37.514Z,75.75
2014-10-07T00:31:42.516Z,75.77
2014-10-07T00:32:47.205Z,75.78
2014-10-07T00:33:52.191Z,75.84
2014-10-07T00:34:56.897Z,75.98
2014-10-07T00:36:01.586Z,76.06
2014-10-07T00:37:06.292Z,75.61
2014-10-07T00:38:10.981Z,75.03
2014-10-07T00:39:15.671Z,74.36
2014-10-07T00:40:20.375Z,74.69
2014-10-07T00:41:25.066Z,74.89
2014-10-07T00:42:29.755Z,75.27
2014-10-07T00:43:34.459Z,75.51
2014-10-07T00:44:39.447Z,74.86
2014-10-07T00:45:44.432Z,75.33
2014-10-07T00:46:49.123Z,75.43
2014-10-07T00:47:54.406Z,75.14
2014-10-07T00:48:59.095Z,74.91
2014-10-07T00:50:03.394Z,75.12
2014-10-07T00:51:08.084Z,75.39
2014-10-07T00:52:12.773Z,75.64
2014-10-07T00:53:17.478Z,75.47
2014-10-07T00:54:22.169Z,75.55
2014-10-07T00:55:26.857Z,75.82
2014-10-07T00:56:31.860Z,75.73
2014-10-07T00:57:36.846Z,75.77
2014-10-07T00:58:41.552Z,75.62
2014-10-07T00:59:46.240Z,75.83
2014-10-07T01:00:50.931Z,75.83
2014-10-07T01:01:55.636Z,76.06
2014-10-07T01:03:00.326Z,75.94
2014-10-07T01:04:05.015Z,75.74
2014-10-07T01:05:09.721Z,75.74
2014-10-07T01:06:14.410Z,76.1
2014-10-07T01:07:19.099Z,76.47
2014-10-07T01:08:24.087Z,76.16
2014-10-07T01:09:29.088Z,75.83
2014-10-07T01:10:33.778Z,76.27
2014-10-07T01:11:38.468Z,76.11
2014-10-07T01:12:43.173Z,75.79
2014-10-07T01:13:48.143Z,75.85
2014-10-07T01:14:52.849Z,76.07
2014-10-07T01:15:57.538Z,75.89
2014-10-07T01:17:02.228Z,76.08
2014-10-07T01:18:07.214Z,76.54
2014-10-07T01:19:11.919Z,76.9
2014-10-07T01:20:16.609Z,76.48
2014-10-07T01:21:21.314Z,76.45
2014-10-07T01:22:26.019Z,76.56
2014-10-07T01:23:30.022Z,76.62
2014-10-07T01:24:34.727Z,76.53
2014-10-07T01:25:39.416Z,76.41
2014-10-07T01:26:44.121Z,76.39
2014-10-07T01:27:49.108Z,76.47
2014-10-07T01:28:53.813Z,77.16
2014-10-07T01:29:58.503Z,76.39
2014-10-07T01:31:03.192Z,76.3
2014-10-07T01:32:07.897Z,76.97
2014-10-07T01:33:12.587Z,76.7
2014-10-07T01:34:17.292Z,76.56
2014-10-07T01:35:22.279Z,76.51
2014-10-07T01:36:27.265Z,76.62
2014-10-07T01:37:31.971Z,76.66
2014-10-07T01:38:36.660Z,76.6
2014-10-07T01:39:41.364Z,76.43
2014-10-07T01:40:46.070Z,76.35
2014-10-07T01:41:51.057Z,76.47
2014-10-07T01:42:55.762Z,76.42
2014-10-07T01:44:00.466Z,76.6
2014-10-07T01:45:05.157Z,76.65
2014-10-07T01:46:09.846Z,76.44
2014-10-07T01:47:14.551Z,76.14
2014-10-07T01:48:19.241Z,76.15
2014-10-07T01:49:23.931Z,76.64
2014-10-07T01:50:28.620Z,76.48
2014-10-07T01:51:33.622Z,76.63
2014-10-07T01:52:37.625Z,76.64
2014-10-07T01:53:42.314Z,75.57
2014-10-07T01:54:47.003Z,75.32
2014-10-07T01:55:51.709Z,74.89
2014-10-07T01:56:56.397Z,74.05
2014-10-07T01:58:01.088Z,74.52
2014-10-07T01:59:05.777Z,74.52
2014-10-07T02:00:10.481Z,75.31
2014-10-07T02:01:15.172Z,76.34
2014-10-07T02:02:19.877Z,76.65
2014-10-07T02:03:24.567Z,76.82
2014-10-07T02:04:29.256Z,76.59
2014-10-07T02:05:33.962Z,76.5
2014-10-07T02:06:38.948Z,77.01
2014-10-07T02:07:43.653Z,76.65
2014-10-07T02:08:48.640Z,76.63
2014-10-07T02:09:53.625Z,76.85
2014-10-07T02:10:58.316Z,76.83
2014-10-07T02:12:03.021Z,77.25
2014-10-07T02:13:07.710Z,77.26
2014-10-07T02:14:12.400Z,77.43
2014-10-07T02:15:17.105Z,77.22
2014-10-07T02:16:22.092Z,77.25
2014-10-07T02:17:26.797Z,77.4
2014-10-07T02:18:30.783Z,77.18
2014-10-07T02:19:35.488Z,76.96
2014-10-07T02:20:40.475Z,76.89
2014-10-07T02:21:45.164Z,76.92
2014-10-07T02:22:49.870Z,77.34
2014-10-07T02:23:54.856Z,77.26
2014-10-07T02:24:59.546Z,77.61
2014-10-07T02:26:04.532Z,77.48
2014-10-07T02:27:09.533Z,77.45
2014-10-07T02:28:14.224Z,77.05
2014-10-07T02:29:18.913Z,75.91
2014-10-07T02:30:23.619Z,76.29
2014-10-07T02:31:28.324Z,76.83
2014-10-07T02:32:33.013Z,77.42
2014-10-07T02:33:37.703Z,77.3
2014-10-07T02:34:42.408Z,77.34
2014-10-07T02:35:47.097Z,77.34
2014-10-07T02:36:52.084Z,76.46
2014-10-07T02:37:56.774Z,75.95
2014-10-07T02:39:01.760Z,75.71
2014-10-07T02:40:06.465Z,77.19
2014-10-07T02:41:11.155Z,77.37
2014-10-07T02:42:15.844Z,77.15
2014-10-07T02:43:20.550Z,77.53
2014-10-07T02:44:25.238Z,77.6
2014-10-07T02:45:29.928Z,77.37
2014-10-07T02:46:34.634Z,78.05
2014-10-07T02:47:39.323Z,77.9
2014-10-07T02:48:44.013Z,78.01
2014-10-07T02:49:49.015Z,78.4
2014-10-07T02:50:53.704Z,78.43
2014-10-07T02:51:58.410Z,78.41
2014-10-07T02:53:03.100Z,78.31
2014-10-07T02:54:08.086Z,77.59
2014-10-07T02:55:12.791Z,77.75
2014-10-07T02:56:17.496Z,78.27
2014-10-07T02:57:22.202Z,78.04
2014-10-07T02:58:26.890Z,78.16
2014-10-07T02:59:31.595Z,78.27
2014-10-07T03:00:36.286Z,78.29
2014-10-07T03:01:40.991Z,78.18
2014-10-07T03:02:45.977Z,78.25
2014-10-07T03:03:50.667Z,78.29
2014-10-07T03:04:55.372Z,78.42
2014-10-07T03:06:00.063Z,78.44
2014-10-07T03:07:05.080Z,78.23
2014-10-07T03:08:09.769Z,78.14
2014-10-07T03:09:14.771Z,78.05
2014-10-07T03:10:19.461Z,78.46
2014-10-07T03:11:24.165Z,78.71
2014-10-07T03:12:28.870Z,78.38
2014-10-07T03:13:33.576Z,78.49
2014-10-07T03:14:38.266Z,78.55
2014-10-07T03:15:42.971Z,78.31
2014-10-07T03:16:47.675Z,78.51
2014-10-07T03:17:52.381Z,78.85
2014-10-07T03:18:56.383Z,78.67
2014-10-07T03:20:01.104Z,78.8
2014-10-07T03:21:05.809Z,78.76
2014-10-07T03:22:10.499Z,78.69
2014-10-07T03:23:14.516Z,78.75
2014-10-07T03:24:19.222Z,79.04
2014-10-07T03:25:23.928Z,79.15
2014-10-07T03:26:28.914Z,78.92
2014-10-07T03:27:33.619Z,78.96
2014-10-07T03:28:38.324Z,78.79
2014-10-07T03:29:43.029Z,78.8
2014-10-07T03:30:47.719Z,78.89
2014-10-07T03:31:52.424Z,78.64
2014-10-07T03:32:57.129Z,78.51
2014-10-07T03:34:01.834Z,78.29
2014-10-07T03:35:06.539Z,78.56
2014-10-07T03:36:11.245Z,78.7
2014-10-07T03:37:15.950Z,78.82
2014-10-07T03:38:20.640Z,78.93
2014-10-07T03:39:25.642Z,79.31
2014-10-07T03:40:30.346Z,79.43
2014-10-07T03:41:35.052Z,79.28
2014-10-07T03:42:39.758Z,78.72
2014-10-07T03:43:44.463Z,79.03
2014-10-07T03:44:49.168Z,79.01
2014-10-07T03:45:53.856Z,78.93
2014-10-07T03:46:58.859Z,79
2014-10-07T03:48:03.549Z,79.4
2014-10-07T03:49:08.551Z,79.25
2014-10-07T03:50:13.240Z,79.36
2014-10-07T03:51:17.945Z,79.45
2014-10-07T03:52:22.666Z,78.98
2014-10-07T03:53:27.653Z,79.29
2014-10-07T03:54:32.343Z,79.21
2014-10-07T03:55:37.033Z,79.09
2014-10-07T03:56:41.737Z,78.53
2014-10-07T03:57:46.427Z,78.51
2014-10-07T03:58:51.116Z,78.64
2014-10-07T03:59:56.119Z,77.97
2014-10-07T04:01:00.808Z,78.63
2014-10-07T04:02:05.497Z,78.63
2014-10-07T04:03:10.203Z,78.23
2014-10-07T04:04:14.892Z,78.46
2014-10-07T04:05:19.879Z,77.72
2014-10-07T04:06:24.584Z,77.87
2014-10-07T04:07:29.570Z,77.86
2014-10-07T04:08:34.260Z,78.17
2014-10-07T04:09:38.965Z,77.81
2014-10-07T04:10:43.654Z,77.96
2014-10-07T04:11:48.345Z,77.92
2014-10-07T04:12:53.050Z,78.52
2014-10-07T04:13:57.739Z,77.89
2014-10-07T04:15:02.725Z,78.92
2014-10-07T04:16:07.431Z,78.95
2014-10-07T04:17:12.120Z,78.71
2014-10-07T04:18:16.826Z,78.79
2014-10-07T04:19:21.515Z,79.13
2014-10-07T04:20:26.501Z,79
2014-10-07T04:21:31.191Z,79.14
2014-10-07T04:22:35.897Z,78.87
2014-10-07T04:23:40.586Z,78.98
2014-10-07T04:24:45.291Z,79.12
2014-10-07T04:25:49.981Z,78.51
2014-10-07T04:26:54.685Z,78.79
2014-10-07T04:27:59.376Z,78.6
2014-10-07T04:29:04.081Z,78.57
2014-10-07T04:30:08.769Z,78.37
2014-10-07T04:31:13.460Z,78.4
2014-10-07T04:32:18.165Z,78.68
2014-10-07T04:33:22.855Z,79.22
2014-10-07T04:34:27.544Z,79.41
2014-10-07T04:35:32.249Z,79.32
2014-10-07T04:36:36.954Z,78.91
2014-10-07T04:37:41.941Z,78.57
2014-10-07T04:38:46.631Z,78.5
2014-10-07T04:39:51.617Z,78.17
2014-10-07T04:40:56.604Z,78.22
2014-10-07T04:42:01.293Z,78.85
2014-10-07T04:43:05.998Z,78.98
2014-10-07T04:44:10.688Z,79.21
2014-10-07T04:45:15.378Z,79.31
2014-10-07T04:46:20.083Z,79.17
2014-10-07T04:47:24.788Z,78.91
2014-10-07T04:48:29.477Z,79.27
2014-10-07T04:49:34.182Z,79.41
2014-10-07T04:50:38.872Z,79.71
2014-10-07T04:51:43.561Z,79.89
2014-10-07T04:52:48.267Z,79.49
2014-10-07T04:53:53.253Z,79.27
2014-10-07T04:54:58.239Z,79.56
2014-10-07T04:56:02.929Z,79.56
2014-10-07T04:57:07.635Z,79.32
2014-10-07T04:58:12.323Z,79.14
2014-10-07T04:59:17.014Z,79
2014-10-07T05:00:21.703Z,78.74
2014-10-07T05:01:26.409Z,78.9
2014-10-07T05:02:31.098Z,78.95
2014-10-07T05:03:35.788Z,78.88
2014-10-07T05:04:40.493Z,79
2014-10-07T05:05:45.182Z,78.85
2014-10-07T05:06:49.887Z,79.37
2014-10-07T05:07:54.577Z,78.78
2014-10-07T05:08:59.282Z,79.06
2014-10-07T05:10:03.971Z,78.69
2014-10-07T05:11:08.677Z,78.87
2014-10-07T05:12:13.382Z,78.71
2014-10-07T05:13:18.072Z,78.42
2014-10-07T05:14:23.074Z,78.19
2014-10-07T05:15:27.764Z,78.32
2014-10-07T05:16:32.750Z,78.63
2014-10-07T05:17:37.455Z,78.61
2014-10-07T05:18:42.145Z,78.68
2014-10-07T05:19:46.850Z,79.03
2014-10-07T05:20:51.539Z,78.88
2014-10-07T05:21:56.244Z,78.5
2014-10-07T05:23:00.934Z,78.48
2014-10-07T05:24:05.640Z,77.96
2014-10-07T05:25:10.625Z,77.98
2014-10-07T05:26:15.331Z,77.94
2014-10-07T05:27:20.037Z,78.49
2014-10-07T05:28:24.726Z,78.69
2014-10-07T05:29:29.430Z,77.97
2014-10-07T05:30:34.135Z,77.51
2014-10-07T05:31:38.826Z,78.19
2014-10-07T05:32:43.531Z,78.6
2014-10-07T05:33:48.236Z,78.99
2014-10-07T05:34:52.941Z,79.25
2014-10-07T05:35:57.646Z,79.22
2014-10-07T05:37:02.352Z,79.14
2014-10-07T05:38:07.057Z,78.93
2014-10-07T05:39:11.763Z,78.73
2014-10-07T05:40:16.451Z,78.38
2014-10-07T05:41:21.156Z,78.8
2014-10-07T05:42:25.862Z,79.39
2014-10-07T05:43:30.552Z,78.67
2014-10-07T05:44:35.257Z,78.27
2014-10-07T05:45:39.977Z,78.49
2014-10-07T05:46:44.666Z,78.68
2014-10-07T05:47:49.373Z,77.69
2014-10-07T05:48:54.078Z,78.04
2014-10-07T05:49:58.783Z,77.27
2014-10-07T05:51:03.488Z,77.62
2014-10-07T05:52:08.474Z,77.65
2014-10-07T05:53:13.211Z,76.89
2014-10-07T05:54:17.917Z,76.92
2014-10-07T05:55:22.621Z,77.15
2014-10-07T05:56:27.326Z,77.25
2014-10-07T05:57:32.031Z,77.57
2014-10-07T05:58:36.752Z,77.06
2014-10-07T05:59:41.458Z,77.14
2014-10-07T06:00:46.163Z,77.32
2014-10-07T06:01:50.867Z,76.33
2014-10-07T06:02:55.573Z,76.25
2014-10-07T06:04:00.263Z,75.99
2014-10-07T06:05:04.952Z,75.87
2014-10-07T06:06:09.658Z,76.23
2014-10-07T06:07:14.644Z,76.12
2014-10-07T06:08:19.333Z,76.09
2014-10-07T06:09:24.320Z,75.69
2014-10-07T06:10:29.322Z,76.06
2014-10-07T06:11:34.011Z,76.07
2014-10-07T06:12:38.701Z,76.07
2014-10-07T06:13:43.443Z,76.31
2014-10-07T06:14:48.486Z,76.31
2014-10-07T06:15:53.215Z,75.52
2014-10-07T06:16:57.946Z,75.94
2014-10-07T06:18:02.685Z,75.77
2014-10-07T06:19:07.685Z,76.62
2014-10-07T06:20:12.390Z,75.41
2014-10-07T06:21:17.110Z,76.56
2014-10-07T06:22:21.815Z,76.48
2014-10-07T06:23:26.528Z,75.2
2014-10-07T06:24:30.536Z,74.67
2014-10-07T06:25:35.246Z,74.61
2014-10-07T06:26:39.940Z,73.95
2014-10-07T06:27:44.932Z,75.01
2014-10-07T06:28:49.640Z,73.79
2014-10-07T06:29:54.629Z,73.47
2014-10-07T06:30:59.320Z,73.19
2014-10-07T06:32:04.027Z,72.62
2014-10-07T06:33:08.717Z,73.36
2014-10-07T06:34:13.423Z,72.51
2014-10-07T06:35:18.114Z,71.71
2014-10-07T06:36:22.820Z,72.19
2014-10-07T06:37:27.510Z,72.18
2014-10-07T06:38:32.215Z,72.51
2014-10-07T06:39:37.202Z,71.77
2014-10-07T06:40:41.892Z,72.81
2014-10-07T06:41:46.582Z,71.25
2014-10-07T06:42:51.288Z,72.73
2014-10-07T06:43:55.977Z,71.16
2014-10-07T06:45:00.682Z,69.95
2014-10-07T06:46:05.372Z,70.83
2014-10-07T06:47:10.373Z,69.76
2014-10-07T06:48:15.064Z,69.63
2014-10-07T06:49:19.769Z,68.71
2014-10-07T06:50:24.457Z,68.86
2014-10-07T06:51:29.148Z,68.97
2014-10-07T06:52:33.853Z,68.89
2014-10-07T06:53:38.558Z,68.8
2014-10-07T06:54:43.279Z,69.27
2014-10-07T06:55:47.984Z,68.9
2014-10-07T06:56:52.970Z,68.57
2014-10-07T06:57:57.676Z,69.03
2014-10-07T06:59:02.960Z,68.8
2014-10-07T07:00:07.648Z,69.04
2014-10-07T07:01:12.635Z,68.97
2014-10-07T07:02:17.341Z,69.04
2014-10-07T07:03:22.046Z,68.48
2014-10-07T07:04:26.734Z,69.09
2014-10-07T07:05:31.441Z,67.31
2014-10-07T07:06:36.130Z,68.64
2014-10-07T07:07:40.835Z,68.19
2014-10-07T07:08:45.540Z,66.59
2014-10-07T07:09:50.230Z,67.1
2014-10-07T07:10:55.232Z,66.37
2014-10-07T07:11:59.937Z,66.51
2014-10-07T07:13:04.626Z,66.6
2014-10-07T07:14:09.332Z,66.93
2014-10-07T07:15:14.037Z,66.48
2014-10-07T07:16:18.743Z,66.16
2014-10-07T07:17:23.463Z,65.68
2014-10-07T07:18:28.184Z,66.1
2014-10-07T07:19:32.888Z,66.8
2014-10-07T07:20:37.890Z,66.77
2014-10-07T07:21:42.597Z,65.53
2014-10-07T07:22:47.599Z,65.14
2014-10-07T07:23:52.601Z,64.78
2014-10-07T07:24:57.306Z,64.11
2014-10-07T07:26:01.996Z,65.37
2014-10-07T07:27:06.700Z,64.56
2014-10-07T07:28:11.405Z,62.13
2014-10-07T07:29:16.111Z,62.17
2014-10-07T07:30:21.113Z,62.03
2014-10-07T07:31:25.819Z,62.43
2014-10-07T07:32:30.524Z,63.31
2014-10-07T07:33:35.244Z,62.62
2014-10-07T07:34:39.950Z,63.44
2014-10-07T07:35:44.936Z,64.23
2014-10-07T07:36:49.938Z,63.44
2014-10-07T07:37:54.643Z,63.83
2014-10-07T07:38:59.348Z,64.75
2014-10-07T07:40:04.350Z,64.56
2014-10-07T07:41:09.071Z,63.71
2014-10-07T07:42:13.776Z,63.09
2014-10-07T07:43:18.763Z,62.23
2014-10-07T07:44:23.468Z,62.76
2014-10-07T07:45:28.470Z,61.75
2014-10-07T07:46:33.473Z,61.93
2014-10-07T07:47:38.162Z,61.89
2014-10-07T07:48:42.866Z,60.85
2014-10-07T07:49:47.587Z,60.79
2014-10-07T07:50:52.278Z,61
2014-10-07T07:51:56.983Z,61.37
2014-10-07T07:53:01.672Z,60.97
2014-10-07T07:54:06.377Z,60.47
2014-10-07T07:55:11.067Z,61.74
2014-10-07T07:56:15.772Z,61.44
2014-10-07T07:57:20.462Z,61.69
2014-10-07T07:58:25.167Z,61.55
2014-10-07T07:59:29.872Z,62.43
2014-10-07T08:00:34.562Z,60.92
2014-10-07T08:01:39.564Z,61.28
2014-10-07T08:02:44.254Z,61.11
2014-10-07T08:03:48.959Z,61.23
2014-10-07T08:04:53.647Z,61.09
2014-10-07T08:05:58.352Z,60.53
2014-10-07T08:07:03.043Z,61.37
2014-10-07T08:08:07.748Z,61.35
2014-10-07T08:09:12.438Z,60.92
2014-10-07T08:10:17.424Z,61.33
2014-10-07T08:11:22.129Z,61.89
2014-10-07T08:12:26.819Z,61.64
2014-10-07T08:13:31.524Z,62.24
2014-10-07T08:14:36.213Z,61.98
2014-10-07T08:15:40.918Z,61.75
2014-10-07T08:16:45.640Z,61.68
2014-10-07T08:17:50.345Z,59.99
2014-10-07T08:18:55.050Z,59.88
2014-10-07T08:19:59.740Z,59.74
2014-10-07T08:21:04.445Z,60.27
2014-10-07T08:22:09.150Z,59.83
2014-10-07T08:23:13.840Z,59.98
2014-10-07T08:24:18.545Z,58.45
2014-10-07T08:25:23.250Z,58.1
2014-10-07T08:26:27.252Z,58.95
2014-10-07T08:27:32.239Z,59.35
2014-10-07T08:28:36.928Z,57.93
2014-10-07T08:29:41.633Z,58.32
2014-10-07T08:30:46.339Z,57.08
2014-10-07T08:31:51.027Z,57.45
2014-10-07T08:32:55.733Z,57.09
2014-10-07T08:34:00.423Z,57.59
2014-10-07T08:35:04.441Z,57.52
2014-10-07T08:36:09.130Z,57.2
2014-10-07T08:37:13.834Z,56.68
2014-10-07T08:38:18.822Z,55.95
2014-10-07T08:39:23.511Z,55.65
2014-10-07T08:40:28.216Z,55.5
2014-10-07T08:41:32.906Z,56.51
2014-10-07T08:42:37.611Z,57.48
2014-10-07T08:43:42.333Z,55.85
2014-10-07T08:44:47.022Z,55.72
2014-10-07T08:45:51.726Z,56.04
2014-10-07T08:46:56.417Z,55.8
2014-10-07T08:48:01.122Z,55.88
2014-10-07T08:49:05.124Z,56.26
2014-10-07T08:50:09.829Z,55.42
2014-10-07T08:51:14.534Z,54.65
2014-10-07T08:52:19.224Z,56.17
2014-10-07T08:53:23.929Z,55.45
2014-10-07T08:54:28.618Z,55.99
2014-10-07T08:55:33.323Z,55.56
2014-10-07T08:56:38.013Z,55.02
2014-10-07T08:57:42.718Z,55.52
2014-10-07T08:58:47.409Z,54.97
2014-10-07T08:59:52.113Z,55.07
2014-10-07T09:00:56.818Z,55.13
2014-10-07T09:02:01.507Z,54.87
2014-10-07T09:03:06.197Z,54.26
2014-10-07T09:04:11.200Z,55.12
2014-10-07T09:05:16.186Z,55.73
2014-10-07T09:06:20.875Z,55.83
2014-10-07T09:07:25.581Z,54.91
2014-10-07T09:08:30.302Z,54.44
2014-10-07T09:09:34.991Z,54.91
2014-10-07T09:10:39.993Z,55.63
2014-10-07T09:11:44.699Z,55.31
2014-10-07T09:12:49.403Z,53.54
2014-10-07T09:13:54.108Z,53.97
2014-10-07T09:14:58.798Z,54.34
2014-10-07T09:16:03.504Z,54.46
2014-10-07T09:17:08.209Z,54.83
2014-10-07T09:18:12.913Z,54.56
2014-10-07T09:19:17.618Z,53.88
2014-10-07T09:20:22.324Z,54.75
2014-10-07T09:21:27.030Z,53.5
2014-10-07T09:22:32.032Z,53.52
2014-10-07T09:23:36.752Z,54.04
2014-10-07T09:24:41.458Z,54.91
2014-10-07T09:25:46.460Z,54.56
2014-10-07T09:26:51.165Z,55
2014-10-07T09:27:55.871Z,53.59
2014-10-07T09:29:00.575Z,54.16
2014-10-07T09:30:05.264Z,54.74
2014-10-07T09:31:09.970Z,53.7
2014-10-07T09:32:14.675Z,54.87
2014-10-07T09:33:19.381Z,53.86
2014-10-07T09:34:24.383Z,54.09
2014-10-07T09:35:29.369Z,53.1
2014-10-07T09:36:34.073Z,53.31
2014-10-07T09:37:38.779Z,53.08
2014-10-07T09:38:43.485Z,54.06
2014-10-07T09:39:48.190Z,55.45
2014-10-07T09:40:52.910Z,53.49
2014-10-07T09:41:57.616Z,53.93
2014-10-07T09:43:02.321Z,54.71
2014-10-07T09:44:07.307Z,53.37
2014-10-07T09:45:12.044Z,53.75
2014-10-07T09:46:16.749Z,52.97
2014-10-07T09:47:21.454Z,53.4
2014-10-07T09:48:26.160Z,53.83
2014-10-07T09:49:30.865Z,54.46
2014-10-07T09:50:35.570Z,55.19
2014-10-07T09:51:40.275Z,54.4
2014-10-07T09:52:44.979Z,54.1
2014-10-07T09:53:49.981Z,54.71
2014-10-07T09:54:54.687Z,54.52
2014-10-07T09:55:59.393Z,54.84
2014-10-07T09:57:04.082Z,54.71
2014-10-07T09:58:08.788Z,55.64
2014-10-07T09:59:13.774Z,55.23
2014-10-07T10:00:18.776Z,55.36
2014-10-07T10:01:23.763Z,54.77
2014-10-07T10:02:28.468Z,55.1
2014-10-07T10:03:33.453Z,55.42
2014-10-07T10:04:38.143Z,55.67
2014-10-07T10:05:42.849Z,55.64
2014-10-07T10:06:47.554Z,55.36
2014-10-07T10:07:52.258Z,56.35
2014-10-07T10:08:56.949Z,56.12
2014-10-07T10:10:01.951Z,56.05
2014-10-07T10:11:06.656Z,55.77
2014-10-07T10:12:11.345Z,55.1
2014-10-07T10:13:16.051Z,56.08
2014-10-07T10:14:21.037Z,54.67
2014-10-07T10:15:26.040Z,55.41
2014-10-07T10:16:30.729Z,55.55
2014-10-07T10:17:35.434Z,54.64
2014-10-07T10:18:40.420Z,54.97
2014-10-07T10:19:45.126Z,54.72
2014-10-07T10:20:50.112Z,54.59
2014-10-07T10:21:54.818Z,55.35
2014-10-07T10:22:59.523Z,54.77
2014-10-07T10:24:04.509Z,54.2
2014-10-07T10:25:09.230Z,55.16
2014-10-07T10:26:13.919Z,54.72
2014-10-07T10:27:18.624Z,54.67
2014-10-07T10:28:23.314Z,54.79
2014-10-07T10:29:28.020Z,54.98
2014-10-07T10:30:32.725Z,54.38
2014-10-07T10:31:37.414Z,55.31
2014-10-07T10:32:42.120Z,53.59
2014-10-07T10:33:46.825Z,54.09
2014-10-07T10:34:51.514Z,53.9
2014-10-07T10:35:56.220Z,54.24
2014-10-07T10:37:00.909Z,54.09
2014-10-07T10:38:05.614Z,52.6
2014-10-07T10:39:10.319Z,53.32
2014-10-07T10:40:15.024Z,53.03
2014-10-07T10:41:19.714Z,52.94
2014-10-07T10:42:24.419Z,53.28
2014-10-07T10:43:29.125Z,53.03
2014-10-07T10:44:33.814Z,52.71
2014-10-07T10:45:38.816Z,52.19
2014-10-07T10:46:43.506Z,52.49
2014-10-07T10:47:48.210Z,52.86
2014-10-07T10:48:52.900Z,53.18
2014-10-07T10:49:57.622Z,52.88
2014-10-07T10:51:02.327Z,53.34
2014-10-07T10:52:07.016Z,52.54
2014-10-07T10:53:11.720Z,52.72
2014-10-07T10:54:16.411Z,53.22
2014-10-07T10:55:20.428Z,52.66
2014-10-07T10:56:25.134Z,53.06
2014-10-07T10:57:30.120Z,52.78
2014-10-07T10:58:34.826Z,53.32
2014-10-07T10:59:39.516Z,52.9
2014-10-07T11:00:44.220Z,52.61
2014-10-07T11:01:48.925Z,53.32
2014-10-07T11:02:53.646Z,52.61
2014-10-07T11:03:58.632Z,52.38
2014-10-07T11:05:03.338Z,52.79
2014-10-07T11:06:08.028Z,52.78
2014-10-07T11:07:12.733Z,53.51
2014-10-07T11:08:17.422Z,54.58
2014-10-07T11:09:22.126Z,54.05
2014-10-07T11:10:26.832Z,54.43
2014-10-07T11:11:31.522Z,53.98
2014-10-07T11:12:36.508Z,54.64
2014-10-07T11:13:41.213Z,53.87
2014-10-07T11:14:45.919Z,54.17
2014-10-07T11:15:50.921Z,54.18
2014-10-07T11:16:55.626Z,53.62
2014-10-07T11:18:00.316Z,53.99
2014-10-07T11:19:05.020Z,54.03
2014-10-07T11:20:09.711Z,53.6
2014-10-07T11:21:14.416Z,53.45
2014-10-07T11:22:19.121Z,54.35
2014-10-07T11:23:23.811Z,53.62
2014-10-07T11:24:28.516Z,54.38
2014-10-07T11:25:33.205Z,54.17
2014-10-07T11:26:37.910Z,54.89
2014-10-07T11:27:42.600Z,54.29
2014-10-07T11:28:47.305Z,54.45
2014-10-07T11:29:52.011Z,54.37
2014-10-07T11:30:56.701Z,55.1
2014-10-07T11:32:01.702Z,55.29
2014-10-07T11:33:06.391Z,55.07
2014-10-07T11:34:11.097Z,55.31
2014-10-07T11:35:15.801Z,55.57
2014-10-07T11:36:20.789Z,55.73
2014-10-07T11:37:25.775Z,56.08
2014-10-07T11:38:30.480Z,56.57
2014-10-07T11:39:35.185Z,57.26
2014-10-07T11:40:39.890Z,57.64
2014-10-07T11:41:44.596Z,57.76
2014-10-07T11:42:49.301Z,57.59
2014-10-07T11:43:54.288Z,58.82
2014-10-07T11:44:58.993Z,58.82
2014-10-07T11:46:03.682Z,58.63
2014-10-07T11:47:08.388Z,58.92
2014-10-07T11:48:13.093Z,58.82
2014-10-07T11:49:17.798Z,59.7
2014-10-07T11:50:22.503Z,60.05
2014-10-07T11:51:27.207Z,60.05
2014-10-07T11:52:31.912Z,59.51
2014-10-07T11:53:36.619Z,59.38
2014-10-07T11:54:41.324Z,59.19
2014-10-07T11:55:46.044Z,60.06
2014-10-07T11:56:50.750Z,60.24
2014-10-07T11:57:55.455Z,60.36
2014-10-07T11:59:00.160Z,60.16
2014-10-07T12:00:04.865Z,59.83
2014-10-07T12:01:09.571Z,60.3
2014-10-07T12:02:14.276Z,60.52
2014-10-07T12:03:18.980Z,60.61
2014-10-07T12:04:23.685Z,61.08
2014-10-07T12:05:28.406Z,60.84
2014-10-07T12:06:33.111Z,61.11
2014-10-07T12:07:37.816Z,60.95
2014-10-07T12:08:42.523Z,61.57
2014-10-07T12:09:47.228Z,61.72
2014-10-07T12:10:51.933Z,61.84
2014-10-07T12:11:56.669Z,62.28
2014-10-07T12:13:01.374Z,62.68
2014-10-07T12:14:06.376Z,64.03
2014-10-07T12:15:11.378Z,64.29
2014-10-07T12:16:16.083Z,65.35
2014-10-07T12:17:20.789Z,66.26
2014-10-07T12:18:25.525Z,67.06
2014-10-07T12:19:30.231Z,67.99
2014-10-07T12:20:34.935Z,70.14
2014-10-07T12:21:39.641Z,70.8
2014-10-07T12:22:44.346Z,71.35
2014-10-07T12:23:49.052Z,71.96
2014-10-07T12:24:53.757Z,73.09
2014-10-07T12:25:58.462Z,73.36
2014-10-07T12:27:03.167Z,73.78
2014-10-07T12:28:07.888Z,73.88
2014-10-07T12:29:12.875Z,73.07
2014-10-07T12:30:17.860Z,73.4
2014-10-07T12:31:22.550Z,73.39
2014-10-07T12:32:27.553Z,73.94
2014-10-07T12:33:32.273Z,72.73
2014-10-07T12:34:36.979Z,73.4
2014-10-07T12:35:41.667Z,73.42
2014-10-07T12:36:46.372Z,73.16
2014-10-07T12:37:51.360Z,73.37
2014-10-07T12:38:56.049Z,73.3
2014-10-07T12:40:00.754Z,73.44
2014-10-07T12:41:05.444Z,72.84
2014-10-07T12:42:10.149Z,73.13
2014-10-07T12:43:14.855Z,73.25
2014-10-07T12:44:19.544Z,73.42
2014-10-07T12:45:24.249Z,72.86
2014-10-07T12:46:28.938Z,72.87
2014-10-07T12:47:33.643Z,73.31
2014-10-07T12:48:38.645Z,73.8
2014-10-07T12:49:43.336Z,74.21
2014-10-07T12:50:48.322Z,74.62
2014-10-07T12:51:53.026Z,74.78
2014-10-07T12:52:57.717Z,75.07
2014-10-07T12:54:02.422Z,75.54
2014-10-07T12:55:07.127Z,75.92
2014-10-07T12:56:11.817Z,75.97
2014-10-07T12:57:16.522Z,76.03
2014-10-07T12:58:21.211Z,75.32
2014-10-07T12:59:25.916Z,75.31
2014-10-07T13:00:30.606Z,76
2014-10-07T13:01:35.296Z,75.69
2014-10-07T13:02:40.001Z,75.25
2014-10-07T13:03:44.690Z,75
2014-10-07T13:04:49.396Z,75.62
2014-10-07T13:05:54.086Z,75.92
2014-10-07T13:06:58.791Z,75.78
2014-10-07T13:08:03.496Z,75.86
2014-10-07T13:09:08.185Z,76.06
2014-10-07T13:10:12.891Z,76.17
2014-10-07T13:11:17.580Z,76.42
2014-10-07T13:12:22.302Z,76.93
2014-10-07T13:13:27.303Z,76.12
2014-10-07T13:14:31.992Z,75.24
2014-10-07T13:15:36.697Z,75.2
2014-10-07T13:16:41.684Z,75.36
2014-10-07T13:17:46.389Z,75.63
2014-10-07T13:18:51.111Z,74.89
2014-10-07T13:19:55.816Z,75.44
2014-10-07T13:21:00.521Z,75.74
2014-10-07T13:22:05.210Z,75.75
2014-10-07T13:23:09.931Z,75.21
2014-10-07T13:24:14.621Z,75.34
2014-10-07T13:25:19.326Z,76
2014-10-07T13:26:24.015Z,76.2
2014-10-07T13:27:28.705Z,75.94
2014-10-07T13:28:33.410Z,76.09
2014-10-07T13:29:38.397Z,76.5
2014-10-07T13:30:43.086Z,76.58
2014-10-07T13:31:47.792Z,76.47
2014-10-07T13:32:52.777Z,76.34
2014-10-07T13:33:57.482Z,76.28
2014-10-07T13:35:02.173Z,76.04
2014-10-07T13:36:06.878Z,76.07
2014-10-07T13:37:11.879Z,76.13
2014-10-07T13:38:16.570Z,76.11
2014-10-07T13:39:21.275Z,76.15
2014-10-07T13:40:25.980Z,76.49
2014-10-07T13:41:30.669Z,76.86
2014-10-07T13:42:35.374Z,76.83
2014-10-07T13:43:40.064Z,76.29
2014-10-07T13:44:44.770Z,76.09
2014-10-07T13:45:49.755Z,76.24
2014-10-07T13:46:54.461Z,76.15
2014-10-07T13:47:59.166Z,75.64
2014-10-07T13:49:03.872Z,74.96
2014-10-07T13:50:08.560Z,75.03
2014-10-07T13:51:13.562Z,74.82
2014-10-07T13:52:18.253Z,74.38
2014-10-07T13:53:22.958Z,74.69
2014-10-07T13:54:27.663Z,75.81
2014-10-07T13:55:32.368Z,75.39
2014-10-07T13:56:37.073Z,75.41